sensor_id;sensor_type;location;lat;lon;timestamp;pressure;altitude;pressure_sealevel;temperature;humidity
42105;BME280;70664;51.472;5.712;2023-09-19T00:00:46;100646.41;;;21.72;70.37
42105;BME280;70664;51.472;5.712;2023-09-19T00:03:15;100642.09;;;21.71;70.48
42105;BME280;70664;51.472;5.712;2023-09-19T00:05:42;100654.34;;;21.70;70.30
42105;BME280;70664;51.472;5.712;2023-09-19T00:08:10;100644.84;;;21.68;70.46
42105;BME280;70664;51.472;5.712;2023-09-19T00:10:38;100662.19;;;21.70;70.69
42105;BME280;70664;51.472;5.712;2023-09-19T00:13:06;100655.19;;;21.71;70.19
42105;BME280;70664;51.472;5.712;2023-09-19T00:15:39;100659.72;;;21.67;70.53
42105;BME280;70664;51.472;5.712;2023-09-19T00:18:07;100659.78;;;21.66;70.27
42105;BME280;70664;51.472;5.712;2023-09-19T00:20:35;100665.00;;;21.66;70.24
42105;BME280;70664;51.472;5.712;2023-09-19T00:23:02;100661.47;;;21.67;70.33
42105;BME280;70664;51.472;5.712;2023-09-19T00:25:37;100664.97;;;21.67;70.02
42105;BME280;70664;51.472;5.712;2023-09-19T00:28:07;100668.50;;;21.66;70.41
42105;BME280;70664;51.472;5.712;2023-09-19T00:30:34;100666.72;;;21.67;70.20
42105;BME280;70664;51.472;5.712;2023-09-19T00:33:00;100659.88;;;21.64;69.95
42105;BME280;70664;51.472;5.712;2023-09-19T00:35:27;100672.09;;;21.64;69.95
42105;BME280;70664;51.472;5.712;2023-09-19T00:37:53;100673.88;;;21.63;70.30
42105;BME280;70664;51.472;5.712;2023-09-19T00:40:19;100667.78;;;21.63;70.07
42105;BME280;70664;51.472;5.712;2023-09-19T00:42:48;100685.13;;;21.65;70.01
42105;BME280;70664;51.472;5.712;2023-09-19T00:45:15;100683.47;;;21.63;70.12
42105;BME280;70664;51.472;5.712;2023-09-19T00:47:49;100677.41;;;21.61;70.12
42105;BME280;70664;51.472;5.712;2023-09-19T00:50:22;100686.88;;;21.65;69.47
42105;BME280;70664;51.472;5.712;2023-09-19T00:52:53;100688.69;;;21.63;70.21
42105;BME280;70664;51.472;5.712;2023-09-19T00:55:19;100685.28;;;21.61;69.90
42105;BME280;70664;51.472;5.712;2023-09-19T00:57:45;100687.88;;;21.61;69.79
42105;BME280;70664;51.472;5.712;2023-09-19T01:00:13;100702.66;;;21.63;70.04
42105;BME280;70664;51.472;5.712;2023-09-19T01:02:42;100709.63;;;21.63;69.70
42105;BME280;70664;51.472;5.712;2023-09-19T01:05:09;100716.66;;;21.61;69.82
42105;BME280;70664;51.472;5.712;2023-09-19T01:07:36;100710.69;;;21.59;70.10
42105;BME280;70664;51.472;5.712;2023-09-19T01:10:11;100720.19;;;21.61;69.81
42105;BME280;70664;51.472;5.712;2023-09-19T01:29:49;100728.13;;;21.58;69.63
42105;BME280;70664;51.472;5.712;2023-09-19T01:32:24;100731.53;;;21.60;69.76
42105;BME280;70664;51.472;5.712;2023-09-19T01:34:56;100729.03;;;21.57;69.64
42105;BME280;70664;51.472;5.712;2023-09-19T01:37:24;100735.91;;;21.60;69.51
42105;BME280;70664;51.472;5.712;2023-09-19T01:40:12;100731.75;;;21.55;69.53
42105;BME280;70664;51.472;5.712;2023-09-19T01:43:17;100736.84;;;21.59;69.21
42105;BME280;70664;51.472;5.712;2023-09-19T01:45:57;100742.91;;;21.59;68.95
42105;BME280;70664;51.472;5.712;2023-09-19T01:54:34;100744.81;;;21.55;69.29
42105;BME280;70664;51.472;5.712;2023-09-19T01:59:57;100743.03;;;21.56;69.02
42105;BME280;70664;51.472;5.712;2023-09-19T02:02:25;100745.59;;;21.58;69.13
42105;BME280;70664;51.472;5.712;2023-09-19T02:04:55;100745.78;;;21.53;68.67
42105;BME280;70664;51.472;5.712;2023-09-19T02:07:20;100750.06;;;21.55;69.45
42105;BME280;70664;51.472;5.712;2023-09-19T02:09:48;100750.19;;;21.52;69.12
42105;BME280;70664;51.472;5.712;2023-09-19T02:12:13;100748.41;;;21.53;69.02
42105;BME280;70664;51.472;5.712;2023-09-19T02:14:40;100756.19;;;21.54;68.99
42105;BME280;70664;51.472;5.712;2023-09-19T02:17:06;100749.28;;;21.53;68.93
42105;BME280;70664;51.472;5.712;2023-09-19T02:19:33;100737.25;;;21.49;69.11
42105;BME280;70664;51.472;5.712;2023-09-19T02:22:00;100743.31;;;21.50;69.38
42105;BME280;70664;51.472;5.712;2023-09-19T02:24:28;100752.00;;;21.50;69.20
42105;BME280;70664;51.472;5.712;2023-09-19T02:26:54;100752.81;;;21.52;68.81
42105;BME280;70664;51.472;5.712;2023-09-19T02:29:21;100752.84;;;21.51;69.05
42105;BME280;70664;51.472;5.712;2023-09-19T02:31:48;100754.56;;;21.52;68.78
42105;BME280;70664;51.472;5.712;2023-09-19T02:34:13;100747.56;;;21.52;68.94
42105;BME280;70664;51.472;5.712;2023-09-19T02:36:42;100752.06;;;21.49;68.89
42105;BME280;70664;51.472;5.712;2023-09-19T02:39:10;100759.00;;;21.50;69.01
42105;BME280;70664;51.472;5.712;2023-09-19T02:41:36;100759.06;;;21.48;68.80
42105;BME280;70664;51.472;5.712;2023-09-19T02:44:03;100772.88;;;21.52;69.04
42105;BME280;70664;51.472;5.712;2023-09-19T02:46:32;100760.91;;;21.46;68.73
42105;BME280;70664;51.472;5.712;2023-09-19T02:48:58;100768.53;;;21.51;68.71
42105;BME280;70664;51.472;5.712;2023-09-19T02:51:24;100768.63;;;21.49;68.58
42105;BME280;70664;51.472;5.712;2023-09-19T02:53:50;100766.13;;;21.46;68.57
42105;BME280;70664;51.472;5.712;2023-09-19T02:56:20;100772.06;;;21.50;68.47
42105;BME280;70664;51.472;5.712;2023-09-19T02:58:46;100774.69;;;21.50;68.64
42105;BME280;70664;51.472;5.712;2023-09-19T03:01:12;100776.47;;;21.49;68.64
42105;BME280;70664;51.472;5.712;2023-09-19T03:03:38;100780.13;;;21.45;68.41
42105;BME280;70664;51.472;5.712;2023-09-19T03:06:05;100773.06;;;21.47;68.28
42105;BME280;70664;51.472;5.712;2023-09-19T03:08:33;100768.84;;;21.45;68.23
42105;BME280;70664;51.472;5.712;2023-09-19T03:11:03;100768.75;;;21.46;68.48
42105;BME280;70664;51.472;5.712;2023-09-19T03:13:32;100776.59;;;21.46;68.53
42105;BME280;70664;51.472;5.712;2023-09-19T03:15:57;100767.97;;;21.44;68.25
42105;BME280;70664;51.472;5.712;2023-09-19T03:18:26;100770.53;;;21.46;68.75
42105;BME280;70664;51.472;5.712;2023-09-19T03:20:56;100770.66;;;21.43;68.40
42105;BME280;70664;51.472;5.712;2023-09-19T03:23:22;100781.06;;;21.44;68.63
42105;BME280;70664;51.472;5.712;2023-09-19T03:25:48;100769.66;;;21.45;68.57
42105;BME280;70664;51.472;5.712;2023-09-19T03:28:14;100770.59;;;21.44;68.59
42105;BME280;70664;51.472;5.712;2023-09-19T03:30:41;100770.66;;;21.43;68.64
42105;BME280;70664;51.472;5.712;2023-09-19T03:33:07;100774.91;;;21.45;68.44
42105;BME280;70664;51.472;5.712;2023-09-19T03:35:33;100767.19;;;21.42;68.22
42105;BME280;70664;51.472;5.712;2023-09-19T03:38:00;100764.66;;;21.40;68.22
42105;BME280;70664;51.472;5.712;2023-09-19T03:40:26;100753.28;;;21.42;68.39
42105;BME280;70664;51.472;5.712;2023-09-19T03:42:51;100763.75;;;21.42;68.06
42105;BME280;70664;51.472;5.712;2023-09-19T03:45:17;100761.16;;;21.40;68.43
42105;BME280;70664;51.472;5.712;2023-09-19T03:47:44;100762.09;;;21.39;68.03
42105;BME280;70664;51.472;5.712;2023-09-19T03:50:12;100765.44;;;21.43;68.15
42105;BME280;70664;51.472;5.712;2023-09-19T03:52:40;100764.69;;;21.39;68.54
42105;BME280;70664;51.472;5.712;2023-09-19T03:55:07;100761.97;;;21.42;68.31
42105;BME280;70664;51.472;5.712;2023-09-19T03:57:33;100753.28;;;21.42;67.74
42105;BME280;70664;51.472;5.712;2023-09-19T04:00:02;100766.28;;;21.43;68.43
42105;BME280;70664;51.472;5.712;2023-09-19T04:02:30;100759.41;;;21.40;68.17
42105;BME280;70664;51.472;5.712;2023-09-19T04:04:59;100758.63;;;21.38;67.86
42105;BME280;70664;51.472;5.712;2023-09-19T04:07:24;100763.75;;;21.42;67.97
42105;BME280;70664;51.472;5.712;2023-09-19T04:09:54;100760.38;;;21.38;68.14
42105;BME280;70664;51.472;5.712;2023-09-19T04:12:20;100753.28;;;21.42;67.72
42105;BME280;70664;51.472;5.712;2023-09-19T04:14:46;100757.78;;;21.38;68.33
42105;BME280;70664;51.472;5.712;2023-09-19T04:17:12;100761.16;;;21.40;67.60
42105;BME280;70664;51.472;5.712;2023-09-19T04:19:38;100757.72;;;21.39;67.68
42105;BME280;70664;51.472;5.712;2023-09-19T04:22:04;100762.94;;;21.39;67.60
42105;BME280;70664;51.472;5.712;2023-09-19T04:24:30;100775.16;;;21.39;67.78
42105;BME280;70664;51.472;5.712;2023-09-19T04:26:57;100776.06;;;21.38;67.92
42105;BME280;70664;51.472;5.712;2023-09-19T04:29:25;100783.88;;;21.39;67.95
42105;BME280;70664;51.472;5.712;2023-09-19T04:31:52;100782.19;;;21.38;67.75
42105;BME280;70664;51.472;5.712;2023-09-19T04:34:17;100784.84;;;21.37;67.80
42105;BME280;70664;51.472;5.712;2023-09-19T04:36:43;100790.19;;;21.34;68.10
42105;BME280;70664;51.472;5.712;2023-09-19T04:39:09;100794.47;;;21.36;67.85
42105;BME280;70664;51.472;5.712;2023-09-19T04:41:37;100804.13;;;21.34;67.78
42105;BME280;70664;51.472;5.712;2023-09-19T04:44:07;100800.53;;;21.37;67.47
42105;BME280;70664;51.472;5.712;2023-09-19T04:46:34;100808.44;;;21.35;67.58
42105;BME280;70664;51.472;5.712;2023-09-19T04:49:00;100820.63;;;21.36;67.76
42105;BME280;70664;51.472;5.712;2023-09-19T04:51:26;100818.00;;;21.36;67.44
42105;BME280;70664;51.472;5.712;2023-09-19T04:53:55;100817.22;;;21.34;67.37
42105;BME280;70664;51.472;5.712;2023-09-19T04:56:20;100827.59;;;21.36;67.30
42105;BME280;70664;51.472;5.712;2023-09-19T04:58:46;100828.50;;;21.35;67.70
42105;BME280;70664;51.472;5.712;2023-09-19T05:01:12;100824.34;;;21.31;67.60
42105;BME280;70664;51.472;5.712;2023-09-19T05:03:40;100839.03;;;21.33;68.07
42105;BME280;70664;51.472;5.712;2023-09-19T05:06:06;100840.88;;;21.31;68.01
42105;BME280;70664;51.472;5.712;2023-09-19T05:08:32;100844.34;;;21.32;67.66
42105;BME280;70664;51.472;5.712;2023-09-19T05:10:58;100831.41;;;21.29;68.05
42105;BME280;70664;51.472;5.712;2023-09-19T05:13:27;100845.97;;;21.34;67.51
42105;BME280;70664;51.472;5.712;2023-09-19T05:15:52;100843.41;;;21.33;67.79
42105;BME280;70664;51.472;5.712;2023-09-19T05:18:18;100846.03;;;21.33;67.72
42105;BME280;70664;51.472;5.712;2023-09-19T05:20:44;100833.94;;;21.30;67.70
42105;BME280;70664;51.472;5.712;2023-09-19T05:23:10;100827.94;;;21.28;67.87
42105;BME280;70664;51.472;5.712;2023-09-19T05:25:40;100838.25;;;21.31;67.45
42105;BME280;70664;51.472;5.712;2023-09-19T05:28:08;100835.78;;;21.28;67.72
42105;BME280;70664;51.472;5.712;2023-09-19T05:30:34;100841.00;;;21.28;67.68
42105;BME280;70664;51.472;5.712;2023-09-19T05:33:02;100841.06;;;21.27;67.80
42105;BME280;70664;51.472;5.712;2023-09-19T05:35:30;100846.97;;;21.32;67.62
42105;BME280;70664;51.472;5.712;2023-09-19T05:37:56;100850.63;;;21.28;67.95
42105;BME280;70664;51.472;5.712;2023-09-19T05:40:24;100841.13;;;21.25;67.70
42105;BME280;70664;51.472;5.712;2023-09-19T05:42:50;100835.06;;;21.24;67.64
42105;BME280;70664;51.472;5.712;2023-09-19T05:45:16;100849.72;;;21.29;67.65
42105;BME280;70664;51.472;5.712;2023-09-19T05:47:52;100842.69;;;21.29;67.41
42105;BME280;70664;51.472;5.712;2023-09-19T05:50:22;100843.69;;;21.27;67.44
42105;BME280;70664;51.472;5.712;2023-09-19T05:52:54;100856.75;;;21.27;67.63
42105;BME280;70664;51.472;5.712;2023-09-19T05:55:21;100853.38;;;21.24;67.48
42105;BME280;70664;51.472;5.712;2023-09-19T05:57:52;100862.03;;;21.25;67.70
42105;BME280;70664;51.472;5.712;2023-09-19T06:00:22;100842.94;;;21.23;67.41
42105;BME280;70664;51.472;5.712;2023-09-19T06:02:52;100856.88;;;21.23;67.34
42105;BME280;70664;51.472;5.712;2023-09-19T06:05:19;100842.13;;;21.22;67.66
42105;BME280;70664;51.472;5.712;2023-09-19T06:07:45;100852.56;;;21.22;67.25
42105;BME280;70664;51.472;5.712;2023-09-19T06:10:12;100854.19;;;21.25;67.40
42105;BME280;70664;51.472;5.712;2023-09-19T06:12:41;100853.47;;;21.21;67.38
42105;BME280;70664;51.472;5.712;2023-09-19T06:15:09;100856.81;;;21.25;67.38
42105;BME280;70664;51.472;5.712;2023-09-19T06:17:42;100864.72;;;21.23;67.89
42105;BME280;70664;51.472;5.712;2023-09-19T06:20:08;100857.72;;;21.24;67.76
42105;BME280;70664;51.472;5.712;2023-09-19T06:22:45;100856.94;;;21.22;67.75
42105;BME280;70664;51.472;5.712;2023-09-19T06:25:12;100869.09;;;21.23;67.68
42105;BME280;70664;51.472;5.712;2023-09-19T06:27:45;100867.34;;;21.23;67.19
42105;BME280;70664;51.472;5.712;2023-09-19T06:30:11;100866.47;;;21.23;67.42
42105;BME280;70664;51.472;5.712;2023-09-19T06:32:38;100869.97;;;21.23;67.46
42105;BME280;70664;51.472;5.712;2023-09-19T06:35:05;100862.16;;;21.22;67.12
42105;BME280;70664;51.472;5.712;2023-09-19T06:37:40;100863.06;;;21.21;67.44
42105;BME280;70664;51.472;5.712;2023-09-19T06:40:14;100872.69;;;21.20;67.42
42105;BME280;70664;51.472;5.712;2023-09-19T06:42:45;100880.41;;;21.23;67.19
42105;BME280;70664;51.472;5.712;2023-09-19T06:45:15;100884.78;;;21.23;67.29
42105;BME280;70664;51.472;5.712;2023-09-19T06:47:49;100890.94;;;21.22;67.64
42105;BME280;70664;51.472;5.712;2023-09-19T06:50:16;100888.31;;;21.22;67.22
42105;BME280;70664;51.472;5.712;2023-09-19T06:52:45;100883.16;;;21.20;67.62
42105;BME280;70664;51.472;5.712;2023-09-19T06:55:14;100897.03;;;21.22;67.02
42105;BME280;70664;51.472;5.712;2023-09-19T06:57:42;100884.06;;;21.19;67.36
42105;BME280;70664;51.472;5.712;2023-09-19T07:00:11;100894.53;;;21.19;67.31
42105;BME280;70664;51.472;5.712;2023-09-19T07:03:10;100897.84;;;21.23;67.16
42105;BME280;70664;51.472;5.712;2023-09-19T07:05:40;100903.94;;;21.23;67.45
42105;BME280;70664;51.472;5.712;2023-09-19T07:08:08;100897.03;;;21.22;67.03
42105;BME280;70664;51.472;5.712;2023-09-19T07:10:37;100893.53;;;21.22;67.10
42105;BME280;70664;51.472;5.712;2023-09-19T07:13:05;100881.38;;;21.21;67.04
42105;BME280;70664;51.472;5.712;2023-09-19T07:15:38;100890.00;;;21.23;67.27
42105;BME280;70664;51.472;5.712;2023-09-19T07:18:07;100893.41;;;21.25;67.34
42105;BME280;70664;51.472;5.712;2023-09-19T07:20:34;100891.78;;;21.22;67.53
42105;BME280;70664;51.472;5.712;2023-09-19T07:23:00;100897.84;;;21.23;67.47
42105;BME280;70664;51.472;5.712;2023-09-19T07:25:27;100903.09;;;21.23;67.18
42105;BME280;70664;51.472;5.712;2023-09-19T07:27:55;100895.44;;;21.18;67.55
42105;BME280;70664;51.472;5.712;2023-09-19T07:30:22;100893.63;;;21.20;67.90
42105;BME280;70664;51.472;5.712;2023-09-19T07:32:48;100896.31;;;21.19;67.49
42105;BME280;70664;51.472;5.712;2023-09-19T07:35:14;100894.34;;;21.24;67.34
42105;BME280;70664;51.472;5.712;2023-09-19T07:37:40;100893.53;;;21.22;67.29
42105;BME280;70664;51.472;5.712;2023-09-19T07:40:07;100900.53;;;21.21;67.38
42105;BME280;70664;51.472;5.712;2023-09-19T07:42:34;100883.16;;;21.20;67.91
42105;BME280;70664;51.472;5.712;2023-09-19T07:45:01;100903.94;;;21.23;67.94
42105;BME280;70664;51.472;5.712;2023-09-19T07:47:27;100892.75;;;21.20;67.84
42105;BME280;70664;51.472;5.712;2023-09-19T07:49:55;100900.44;;;21.24;67.93
42105;BME280;70664;51.472;5.712;2023-09-19T07:52:21;100904.78;;;21.24;67.65
42105;BME280;70664;51.472;5.712;2023-09-19T07:54:48;100904.88;;;21.22;67.86
42105;BME280;70664;51.472;5.712;2023-09-19T07:57:15;100899.56;;;21.24;67.83
42105;BME280;70664;51.472;5.712;2023-09-19T07:59:41;100902.25;;;21.22;67.57
42105;BME280;70664;51.472;5.712;2023-09-19T08:02:08;100909.19;;;21.23;67.35
42105;BME280;70664;51.472;5.712;2023-09-19T08:04:44;100916.03;;;21.26;67.65
42105;BME280;70664;51.472;5.712;2023-09-19T08:07:12;100917.81;;;21.25;67.53
42105;BME280;70664;51.472;5.712;2023-09-19T08:09:41;100903.94;;;21.23;67.67
42105;BME280;70664;51.472;5.712;2023-09-19T08:12:11;100909.00;;;21.28;67.68
42105;BME280;70664;51.472;5.712;2023-09-19T08:14:37;100912.50;;;21.27;67.64
42105;BME280;70664;51.472;5.712;2023-09-19T08:17:04;100912.50;;;21.27;67.42
42105;BME280;70664;51.472;5.712;2023-09-19T08:19:31;100912.50;;;21.27;67.51
42105;BME280;70664;51.472;5.712;2023-09-19T08:21:58;100903.09;;;21.23;67.65
42105;BME280;70664;51.472;5.712;2023-09-19T08:24:29;100908.16;;;21.28;67.83
42105;BME280;70664;51.472;5.712;2023-09-19T08:26:55;100908.06;;;21.29;67.73
42105;BME280;70664;51.472;5.712;2023-09-19T08:29:23;100906.38;;;21.28;67.70
42105;BME280;70664;51.472;5.712;2023-09-19T08:31:59;100893.28;;;21.28;68.01
42105;BME280;70664;51.472;5.712;2023-09-19T08:34:25;100903.03;;;21.24;68.00
42105;BME280;70664;51.472;5.712;2023-09-19T08:36:53;100902.25;;;21.22;63.60
42105;BME280;70664;51.472;5.712;2023-09-19T08:39:22;100903.22;;;21.20;62.21
42105;BME280;70664;51.472;5.712;2023-09-19T08:41:48;100904.19;;;21.17;61.71
42105;BME280;70664;51.472;5.712;2023-09-19T08:44:15;100901.69;;;21.14;61.64
42105;BME280;70664;51.472;5.712;2023-09-19T08:46:42;100895.56;;;21.15;60.66
42105;BME280;70664;51.472;5.712;2023-09-19T08:49:39;100905.00;;;21.19;61.79
42105;BME280;70664;51.472;5.712;2023-09-19T08:52:41;100909.41;;;21.17;61.07
42105;BME280;70664;51.472;5.712;2023-09-19T08:55:13;100903.47;;;21.14;60.68
42105;BME280;70664;51.472;5.712;2023-09-19T08:57:40;100895.75;;;21.10;60.86
42105;BME280;70664;51.472;5.712;2023-09-19T09:00:09;100906.09;;;21.14;60.57
42105;BME280;70664;51.472;5.712;2023-09-19T09:02:41;100900.88;;;21.14;60.94
42105;BME280;70664;51.472;5.712;2023-09-19T09:05:09;100905.34;;;21.10;59.35
42105;BME280;70664;51.472;5.712;2023-09-19T09:07:37;100914.78;;;21.14;59.98
42105;BME280;70664;51.472;5.712;2023-09-19T09:10:04;100910.56;;;21.10;59.44
42105;BME280;70664;51.472;5.712;2023-09-19T09:12:30;100908.75;;;21.12;58.93
42105;BME280;70664;51.472;5.712;2023-09-19T09:14:56;100905.53;;;21.05;58.72
42105;BME280;70664;51.472;5.712;2023-09-19T09:17:26;100911.44;;;21.10;58.63
42105;BME280;70664;51.472;5.712;2023-09-19T09:19:55;100901.81;;;21.11;58.72
42105;BME280;70664;51.472;5.712;2023-09-19T09:22:21;100905.31;;;21.12;59.01
42105;BME280;70664;51.472;5.712;2023-09-19T09:24:57;100899.09;;;21.14;60.93
42105;BME280;70664;51.472;5.712;2023-09-19T09:27:24;100906.09;;;21.14;61.98
42105;BME280;70664;51.472;5.712;2023-09-19T09:29:52;100907.34;;;21.25;62.22
42105;BME280;70664;51.472;5.712;2023-09-19T09:32:24;100914.53;;;21.43;59.39
42105;BME280;70664;51.472;5.712;2023-09-19T09:34:59;100909.78;;;21.30;60.77
42105;BME280;70664;51.472;5.712;2023-09-19T09:37:27;100908.16;;;21.28;61.68
42105;BME280;70664;51.472;5.712;2023-09-19T09:40:01;100904.75;;;21.25;62.33
42105;BME280;70664;51.472;5.712;2023-09-19T09:42:42;100900.59;;;21.20;60.12
42105;BME280;70664;51.472;5.712;2023-09-19T09:45:20;100900.88;;;21.14;58.09
42105;BME280;70664;51.472;5.712;2023-09-19T09:48:02;100900.19;;;21.08;57.59
42105;BME280;70664;51.472;5.712;2023-09-19T09:50:31;100897.63;;;21.07;57.09
42105;BME280;70664;51.472;5.712;2023-09-19T09:53:27;100893.31;;;21.06;56.86
42105;BME280;70664;51.472;5.712;2023-09-19T09:56:03;100892.41;;;21.07;57.26
42105;BME280;70664;51.472;5.712;2023-09-19T09:58:34;100902.00;;;21.06;57.18
42105;BME280;70664;51.472;5.712;2023-09-19T10:01:01;100892.41;;;21.07;57.16
42105;BME280;70664;51.472;5.712;2023-09-19T10:03:36;100888.94;;;21.06;56.78
42105;BME280;70664;51.472;5.712;2023-09-19T10:06:16;100889.03;;;21.05;56.75
42105;BME280;70664;51.472;5.712;2023-09-19T10:09:06;100899.47;;;21.05;56.65
42105;BME280;70664;51.472;5.712;2023-09-19T10:11:48;100884.75;;;21.02;56.76
42105;BME280;70664;51.472;5.712;2023-09-19T10:14:29;100884.75;;;21.02;56.90
42105;BME280;70664;51.472;5.712;2023-09-19T10:16:59;100886.31;;;21.06;57.49
42105;BME280;70664;51.472;5.712;2023-09-19T10:19:54;100888.06;;;21.06;56.71
42105;BME280;70664;51.472;5.712;2023-09-19T10:22:24;100884.44;;;21.10;58.80
42105;BME280;70664;51.472;5.712;2023-09-19T10:24:53;100889.53;;;21.13;60.25
42105;BME280;70664;51.472;5.712;2023-09-19T10:27:21;100882.56;;;21.14;60.59
42105;BME280;70664;51.472;5.712;2023-09-19T10:29:52;100885.91;;;21.17;60.90
42105;BME280;70664;51.472;5.712;2023-09-19T10:32:23;100894.84;;;21.12;57.35
42105;BME280;70664;51.472;5.712;2023-09-19T10:34:49;100883.78;;;21.05;56.93
42105;BME280;70664;51.472;5.712;2023-09-19T10:37:20;100888.94;;;21.06;57.13
42105;BME280;70664;51.472;5.712;2023-09-19T10:39:52;100884.75;;;21.02;55.95
42105;BME280;70664;51.472;5.712;2023-09-19T10:42:20;100888.28;;;21.01;56.42
42105;BME280;70664;51.472;5.712;2023-09-19T10:44:52;100889.13;;;21.02;56.50
42105;BME280;70664;51.472;5.712;2023-09-19T10:47:20;100883.00;;;21.03;56.56
42105;BME280;70664;51.472;5.712;2023-09-19T10:49:47;100888.22;;;21.03;56.32
42105;BME280;70664;51.472;5.712;2023-09-19T10:52:16;100885.63;;;21.03;56.88
42105;BME280;70664;51.472;5.712;2023-09-19T10:54:50;100885.63;;;21.03;55.58
42105;BME280;70664;51.472;5.712;2023-09-19T10:57:23;100887.25;;;21.05;55.99
42105;BME280;70664;51.472;5.712;2023-09-19T11:00:06;100889.38;;;21.18;56.46
42105;BME280;70664;51.472;5.712;2023-09-19T11:03:23;100887.28;;;21.26;57.50
42105;BME280;70664;51.472;5.712;2023-09-19T11:06:16;100875.78;;;21.30;57.58
42105;BME280;70664;51.472;5.712;2023-09-19T11:08:59;100877.25;;;21.37;58.34
42105;BME280;70664;51.472;5.712;2023-09-19T11:11:45;100865.00;;;21.38;58.40
42105;BME280;70664;51.472;5.712;2023-09-19T11:17:34;100863.75;;;21.47;58.75
42105;BME280;70664;51.472;5.712;2023-09-19T11:30:51;100858.28;;;21.53;59.37
42105;BME280;70664;51.472;5.712;2023-09-19T11:33:32;100838.22;;;21.53;59.44
42105;BME280;70664;51.472;5.712;2023-09-19T11:36:16;100831.97;;;21.56;60.01
42105;BME280;70664;51.472;5.712;2023-09-19T11:49:33;100818.38;;;21.27;55.14
42105;BME280;70664;51.472;5.712;2023-09-19T11:52:00;100818.38;;;21.27;55.31
42105;BME280;70664;51.472;5.712;2023-09-19T11:54:32;100804.38;;;21.28;55.23
42105;BME280;70664;51.472;5.712;2023-09-19T11:56:59;100813.94;;;21.29;55.49
42105;BME280;70664;51.472;5.712;2023-09-19T11:59:32;100810.28;;;21.33;56.40
42105;BME280;70664;51.472;5.712;2023-09-19T12:02:05;100798.66;;;21.40;56.80
42105;BME280;70664;51.472;5.712;2023-09-19T12:04:42;100804.59;;;21.44;57.58
42105;BME280;70664;51.472;5.712;2023-09-19T12:07:16;100796.69;;;21.46;57.51
42105;BME280;70664;51.472;5.712;2023-09-19T12:09:50;100790.47;;;21.48;58.06
42105;BME280;70664;51.472;5.712;2023-09-19T12:12:24;100792.16;;;21.49;58.29
42105;BME280;70664;51.472;5.712;2023-09-19T12:14:55;100795.63;;;21.50;58.29
42105;BME280;70664;51.472;5.712;2023-09-19T12:17:37;100791.25;;;21.50;58.54
42105;BME280;70664;51.472;5.712;2023-09-19T12:20:05;100800.00;;;21.49;58.51
42105;BME280;70664;51.472;5.712;2023-09-19T12:22:42;100793.88;;;21.50;59.18
42105;BME280;70664;51.472;5.712;2023-09-19T12:25:09;100798.22;;;21.50;59.20
42105;BME280;70664;51.472;5.712;2023-09-19T12:27:47;100794.69;;;21.51;58.54
42105;BME280;70664;51.472;5.712;2023-09-19T12:30:16;100803.34;;;21.53;58.67
42105;BME280;70664;51.472;5.712;2023-09-19T12:32:46;100792.09;;;21.51;58.99
42105;BME280;70664;51.472;5.712;2023-09-19T12:35:31;100797.28;;;21.52;59.21
42105;BME280;70664;51.472;5.712;2023-09-19T12:38:01;100805.13;;;21.52;58.91
42105;BME280;70664;51.472;5.712;2023-09-19T12:40:29;100808.56;;;21.53;59.05
42105;BME280;70664;51.472;5.712;2023-09-19T12:42:59;100810.28;;;21.54;59.87
42105;BME280;70664;51.472;5.712;2023-09-19T12:45:28;100812.03;;;21.53;59.97
42105;BME280;70664;51.472;5.712;2023-09-19T12:48:25;100804.13;;;21.55;59.69
42105;BME280;70664;51.472;5.712;2023-09-19T12:51:11;100806.94;;;21.50;58.32
42105;BME280;70664;51.472;5.712;2023-09-19T12:53:43;100800.84;;;21.50;58.40
42105;BME280;70664;51.472;5.712;2023-09-19T12:56:16;100793.78;;;21.52;59.06
42105;BME280;70664;51.472;5.712;2023-09-19T12:58:55;100794.00;;;21.47;57.73
42105;BME280;70664;51.472;5.712;2023-09-19T13:01:25;100782.31;;;21.35;56.06
42105;BME280;70664;51.472;5.712;2023-09-19T13:04:19;100793.72;;;21.33;56.35
42105;BME280;70664;51.472;5.712;2023-09-19T13:06:52;100789.34;;;21.33;56.00
42105;BME280;70664;51.472;5.712;2023-09-19T13:09:22;100803.28;;;21.34;56.33
42105;BME280;70664;51.472;5.712;2023-09-19T13:12:00;100791.19;;;21.31;56.39
42105;BME280;70664;51.472;5.712;2023-09-19T13:14:29;100807.78;;;21.30;56.21
42105;BME280;70664;51.472;5.712;2023-09-19T13:19:41;100796.34;;;21.33;56.20
42105;BME280;70664;51.472;5.712;2023-09-19T13:22:45;100815.44;;;21.35;55.53
42105;BME280;70664;51.472;5.712;2023-09-19T13:25:21;100798.94;;;21.33;55.56
42105;BME280;70664;51.472;5.712;2023-09-19T13:27:57;100806.63;;;21.37;56.06
42105;BME280;70664;51.472;5.712;2023-09-19T13:30:26;100805.06;;;21.33;55.47
42105;BME280;70664;51.472;5.712;2023-09-19T13:33:11;100804.19;;;21.33;55.29
42105;BME280;70664;51.472;5.712;2023-09-19T13:35:39;100816.44;;;21.32;55.40
42105;BME280;70664;51.472;5.712;2023-09-19T13:38:07;100805.19;;;21.30;54.72
42105;BME280;70664;51.472;5.712;2023-09-19T13:40:38;100797.53;;;21.25;54.46
42105;BME280;70664;51.472;5.712;2023-09-19T13:43:05;100806.22;;;21.26;54.55
42105;BME280;70664;51.472;5.712;2023-09-19T13:45:32;100804.34;;;21.30;55.26
42105;BME280;70664;51.472;5.712;2023-09-19T13:47:58;100804.97;;;21.35;55.55
42105;BME280;70664;51.472;5.712;2023-09-19T13:50:27;100796.09;;;21.39;55.89
42105;BME280;70664;51.472;5.712;2023-09-19T13:52:55;100809.91;;;21.43;56.51
42105;BME280;70664;51.472;5.712;2023-09-19T13:55:21;100808.06;;;21.45;56.99
42105;BME280;70664;51.472;5.712;2023-09-19T13:57:48;100803.69;;;21.45;57.04
42105;BME280;70664;51.472;5.712;2023-09-19T14:00:16;100799.22;;;21.47;57.43